Time;durP1;ratioP1;P1;durP2;ratioP2;P2;SDS_P1;SDS_P2;PMS_P1;PMS_P2;Temp;Humidity;BMP_temperature;BMP_pressure;BME280_temperature;BME280_humidity;BME280_pressure;Samples;Min_cycle;Max_cycle;Signal;HPM_P1;HPM_P2
2022/05/09 00:01:00;;;;;;;;;;;;;;;22.10;30.53;103072.22;2099839;28;803;-59
2022/05/09 00:02:00;;;;;;;;;;;;;;;22.09;30.45;103063.22;2099160;28;1507;-59
2022/05/09 00:03:00;;;;;;;;;;;;;;;22.09;30.50;103065.91;2099172;28;858;-59
2022/05/09 00:04:00;;;;;;;;;;;;;;;22.09;30.39;103062.31;2090846;28;2297;-59
2022/05/09 00:05:00;;;;;;;;;;;;;;;22.09;30.45;103067.72;2099113;28;941;-59
2022/05/09 00:06:01;;;;;;;;;;;;;;;22.09;30.71;103065.03;2099784;28;996;-59
2022/05/09 00:07:01;;;;;;;;;;;;;;;22.09;31.11;103067.72;2099818;28;818;-59
2022/05/09 00:08:01;;;;;;;;;;;;;;;22.08;31.13;103065.94;2099772;28;775;-59
2022/05/09 00:09:02;;;;;;;;;;;;;;;22.08;30.31;103064.13;2099718;28;1889;-59
2022/05/09 00:10:03;;;;;;;;;;;;;;;22.08;30.61;103065.94;2099855;28;858;-59
2022/05/09 00:11:03;;;;;;;;;;;;;;;22.06;30.54;103069.53;2099866;28;830;-59
2022/05/09 00:12:03;;;;;;;;;;;;;;;22.07;30.83;103073.16;2099721;28;1043;-59
2022/05/09 00:13:04;;;;;;;;;;;;;;;22.05;31.38;103069.56;2099788;28;819;-59
2022/05/09 00:14:04;;;;;;;;;;;;;;;22.03;31.24;103072.25;2099709;28;981;-59
2022/05/09 00:15:05;;;;;;;;;;;;;;;22.04;30.56;103065.94;2099747;28;1055;-59
2022/05/09 00:16:05;;;;;;;;;;;;;;;22.03;30.43;103066.84;2099709;28;1003;-59
2022/05/09 00:17:05;;;;;;;;;;;;;;;22.04;30.55;103065.94;2099667;28;930;-59
2022/05/09 00:18:06;;;;;;;;;;;;;;;22.03;30.69;103066.84;2099667;28;984;-59
2022/05/09 00:19:07;;;;;;;;;;;;;;;22.02;30.72;103065.06;2099710;28;969;-59
2022/05/09 00:20:07;;;;;;;;;;;;;;;22.02;30.79;103065.06;2099305;28;775;-59
2022/05/09 00:21:08;;;;;;;;;;;;;;;22.02;30.60;103061.47;2099453;28;859;-59
2022/05/09 00:22:08;;;;;;;;;;;;;;;22.02;31.03;103059.66;2099661;28;771;-59
2022/05/09 00:23:08;;;;;;;;;;;;;;;22.02;30.88;103065.06;2098969;28;1305;-59
2022/05/09 00:24:12;;;;;;;;;;;;;;;22.01;30.51;103060.56;2099035;28;1043;-59
2022/05/09 00:25:13;;;;;;;;;;;;;;;22.00;30.76;103061.47;2098989;28;858;-59
2022/05/09 00:26:13;;;;;;;;;;;;;;;21.99;31.32;103056.97;2098857;28;1182;-59
2022/05/09 00:27:13;;;;;;;;;;;;;;;22.00;31.12;103063.28;2099805;28;523;-59
2022/05/09 00:28:13;;;;;;;;;;;;;;;22.00;31.43;103064.16;2099759;28;1079;-59
2022/05/09 00:29:15;;;;;;;;;;;;;;;21.98;31.36;103055.19;2099801;28;1918;-59
2022/05/09 00:30:15;;;;;;;;;;;;;;;21.99;30.83;103065.06;2099737;28;803;-59
2022/05/09 00:31:15;;;;;;;;;;;;;;;21.99;30.78;103062.38;2099557;28;1342;-59
2022/05/09 00:32:16;;;;;;;;;;;;;;;21.99;31.13;103059.66;2099596;28;938;-59
2022/05/09 00:33:16;;;;;;;;;;;;;;;21.98;30.84;103062.38;2099614;28;1028;-59
2022/05/09 00:34:17;;;;;;;;;;;;;;;21.97;30.72;103053.38;2099575;28;996;-59
2022/05/09 00:35:17;;;;;;;;;;;;;;;21.98;31.09;103057.88;2099706;28;857;-59
2022/05/09 00:36:17;;;;;;;;;;;;;;;21.97;31.05;103049.81;2099604;28;629;-59
2022/05/09 00:37:18;;;;;;;;;;;;;;;21.98;31.29;103051.59;2099657;28;1179;-59
2022/05/09 00:38:18;;;;;;;;;;;;;;;21.97;30.56;103049.81;2099561;28;720;-59
2022/05/09 00:39:19;;;;;;;;;;;;;;;21.97;31.45;103049.81;2099527;28;1017;-59
2022/05/09 00:40:19;;;;;;;;;;;;;;;21.97;30.81;103050.69;2099577;28;791;-59
2022/05/09 00:41:29;;;;;;;;;;;;;;;21.96;31.01;103054.28;2099700;28;989;-59
2022/05/09 00:42:29;;;;;;;;;;;;;;;21.96;30.72;103045.31;2099647;28;838;-59
2022/05/09 00:43:33;;;;;;;;;;;;;;;21.95;30.96;103051.59;2099507;28;811;-59
2022/05/09 00:44:34;;;;;;;;;;;;;;;21.94;31.49;103045.28;2099670;28;921;-59
2022/05/09 00:45:35;;;;;;;;;;;;;;;21.95;30.87;103046.22;2099733;28;748;-59
2022/05/09 00:46:36;;;;;;;;;;;;;;;21.94;30.85;103050.69;2099552;28;956;-59
2022/05/09 00:47:36;;;;;;;;;;;;;;;21.94;31.03;103049.81;2099596;28;909;-59
2022/05/09 00:48:36;;;;;;;;;;;;;;;21.96;30.72;103048.00;2099531;28;1902;-59
2022/05/09 00:49:37;;;;;;;;;;;;;;;21.94;31.03;103053.38;2098827;28;1354;-59
2022/05/09 00:50:37;;;;;;;;;;;;;;;21.94;31.21;103045.28;2098962;28;847;-59
2022/05/09 00:51:38;;;;;;;;;;;;;;;21.92;30.73;103048.03;2098891;28;1005;-59
2022/05/09 00:52:38;;;;;;;;;;;;;;;21.92;30.87;103041.72;2099444;28;823;-59
2022/05/09 00:53:38;;;;;;;;;;;;;;;21.92;31.47;103048.03;2099537;28;791;-59
2022/05/09 00:54:50;;;;;;;;;;;;;;;21.92;30.93;103044.41;2099526;28;877;-59
2022/05/09 00:55:54;;;;;;;;;;;;;;;21.92;30.83;103044.41;2099505;28;953;-59
2022/05/09 00:57:00;;;;;;;;;;;;;;;21.91;31.75;103043.53;2099420;28;1539;-59
2022/05/09 00:58:06;;;;;;;;;;;;;;;21.93;30.94;103046.19;2099633;28;854;-59
2022/05/09 00:59:09;;;;;;;;;;;;;;;21.93;30.90;103046.19;2099618;28;799;-59
2022/05/09 01:00:12;;;;;;;;;;;;;;;21.91;30.91;103045.31;2099413;28;921;-59
2022/05/09 01:01:13;;;;;;;;;;;;;;;21.91;31.59;103039.91;2099555;28;811;-59
2022/05/09 01:02:15;;;;;;;;;;;;;;;21.89;31.24;103042.63;2099509;28;929;-59
2022/05/09 01:03:18;;;;;;;;;;;;;;;21.90;30.90;103043.50;2099438;28;814;-59
2022/05/09 01:04:21;;;;;;;;;;;;;;;21.90;31.30;103041.72;2099527;28;1059;-59
2022/05/09 01:05:21;;;;;;;;;;;;;;;21.90;30.90;103046.22;2099486;28;849;-59
2022/05/09 01:06:21;;;;;;;;;;;;;;;21.90;31.01;103043.50;2099474;28;806;-59
2022/05/09 01:07:22;;;;;;;;;;;;;;;21.91;31.64;103045.31;2099555;28;961;-59
2022/05/09 01:08:24;;;;;;;;;;;;;;;21.89;31.68;103045.31;2099662;28;767;-59
2022/05/09 01:09:26;;;;;;;;;;;;;;;21.89;31.59;103044.41;2099367;28;1903;-59
2022/05/09 01:10:31;;;;;;;;;;;;;;;21.89;31.10;103041.72;2099411;28;890;-59
2022/05/09 01:11:32;;;;;;;;;;;;;;;21.89;31.03;103042.63;2099484;28;917;-59
2022/05/09 01:12:34;;;;;;;;;;;;;;;21.88;31.04;103043.53;2099572;28;1025;-59
2022/05/09 01:13:36;;;;;;;;;;;;;;;21.86;31.88;103030.94;2099422;28;918;-59
2022/05/09 01:14:39;;;;;;;;;;;;;;;21.89;31.74;103041.72;2099434;28;791;-59
2022/05/09 01:15:40;;;;;;;;;;;;;;;21.88;30.95;103040.84;2099446;28;890;-59
2022/05/09 01:16:41;;;;;;;;;;;;;;;21.89;31.04;103036.31;2099467;28;984;-59
2022/05/09 01:17:43;;;;;;;;;;;;;;;21.87;31.68;103041.75;2099786;28;782;-59
2022/05/09 01:18:44;;;;;;;;;;;;;;;21.89;31.87;103041.72;2099479;28;948;-59
2022/05/09 01:19:45;;;;;;;;;;;;;;;21.86;31.10;103036.34;2099453;28;745;-59
2022/05/09 01:20:45;;;;;;;;;;;;;;;21.85;31.29;103039.94;2099401;28;803;-59
2022/05/09 01:21:46;;;;;;;;;;;;;;;21.87;31.76;103041.75;2099368;28;1040;-59
2022/05/09 01:22:46;;;;;;;;;;;;;;;21.87;31.40;103036.34;2099334;28;775;-59
2022/05/09 01:23:46;;;;;;;;;;;;;;;21.86;31.20;103036.34;2099400;28;854;-59
2022/05/09 01:24:46;;;;;;;;;;;;;;;21.85;31.89;103037.22;2099371;28;988;-59
2022/05/09 01:25:47;;;;;;;;;;;;;;;21.86;31.75;103036.34;2099407;28;814;-59
2022/05/09 01:26:47;;;;;;;;;;;;;;;21.86;32.03;103033.63;2099206;28;1296;-59
2022/05/09 01:27:48;;;;;;;;;;;;;;;21.86;31.67;103036.34;2099356;28;837;-59
2022/05/09 01:28:48;;;;;;;;;;;;;;;21.86;31.28;103036.34;2099380;28;1984;-59
2022/05/09 01:30:21;;;;;;;;;;;;;;;21.85;31.76;103032.75;2099333;28;1075;-60
2022/05/09 01:31:21;;;;;;;;;;;;;;;21.85;31.58;103029.16;2089980;28;1241;-59
2022/05/09 01:32:24;;;;;;;;;;;;;;;21.86;31.03;103030.94;2091709;28;889;-59
2022/05/09 01:33:37;;;;;;;;;;;;;;;21.86;31.71;103034.56;2091770;28;803;-59
2022/05/09 01:34:38;;;;;;;;;;;;;;;21.85;31.54;103035.44;2091649;28;827;-59
2022/05/09 01:35:42;;;;;;;;;;;;;;;21.85;31.26;103030.06;2091644;28;1074;-59
2022/05/09 01:36:44;;;;;;;;;;;;;;;21.86;31.43;103036.34;2091744;28;897;-59
2022/05/09 01:37:47;;;;;;;;;;;;;;;21.85;31.15;103037.22;2091682;28;827;-59
2022/05/09 01:38:54;;;;;;;;;;;;;;;21.85;31.13;103037.22;2091628;28;803;-59
2022/05/09 01:39:54;;;;;;;;;;;;;;;21.84;31.27;103033.66;2091657;28;953;-59
2022/05/09 01:40:54;;;;;;;;;;;;;;;21.84;31.48;103039.06;2091664;28;1040;-59
2022/05/09 01:41:54;;;;;;;;;;;;;;;21.84;31.25;103032.75;2091597;28;968;-59
2022/05/09 01:42:55;;;;;;;;;;;;;;;21.84;31.30;103033.66;2091716;28;973;-59
2022/05/09 01:43:55;;;;;;;;;;;;;;;21.84;31.35;103027.34;2091689;28;993;-59
2022/05/09 01:44:55;;;;;;;;;;;;;;;21.84;31.64;103036.34;2091691;28;988;-59
2022/05/09 01:45:55;;;;;;;;;;;;;;;21.84;31.92;103035.44;2091712;28;980;-59
2022/05/09 01:49:34;;;;;;;;;;;;;;;21.83;31.12;103022.84;2091576;28;1898;-59
2022/05/09 01:50:35;;;;;;;;;;;;;;;21.83;31.90;103025.56;2091690;28;870;-59
2022/05/09 01:51:36;;;;;;;;;;;;;;;21.83;31.26;103021.06;2091640;28;978;-59
2022/05/09 01:52:36;;;;;;;;;;;;;;;21.83;31.18;103026.47;2091603;28;993;-59
2022/05/09 01:53:36;;;;;;;;;;;;;;;21.83;32.04;103017.47;2091626;28;811;-59
2022/05/09 01:54:39;;;;;;;;;;;;;;;21.82;31.53;103018.38;2091534;28;937;-59
2022/05/09 01:55:39;;;;;;;;;;;;;;;21.82;31.22;103013.88;2091553;28;812;-59
2022/05/09 01:56:40;;;;;;;;;;;;;;;21.82;31.29;103010.28;2091569;28;803;-59
2022/05/09 01:57:41;;;;;;;;;;;;;;;21.82;31.36;103019.28;2091542;28;1052;-59
2022/05/09 01:58:41;;;;;;;;;;;;;;;21.82;31.75;103013.88;2091602;28;973;-59
2022/05/09 01:59:41;;;;;;;;;;;;;;;21.82;31.43;103015.66;2091532;28;1373;-59
2022/05/09 02:00:43;;;;;;;;;;;;;;;21.82;31.39;103015.66;2091588;28;768;-59
2022/05/09 02:01:45;;;;;;;;;;;;;;;21.83;31.29;103021.06;2091548;28;783;-59
2022/05/09 02:02:45;;;;;;;;;;;;;;;21.82;31.40;103018.38;2083151;28;1673;-59
2022/05/09 02:03:46;;;;;;;;;;;;;;;21.82;31.64;103013.88;2084210;28;850;-59
2022/05/09 02:04:47;;;;;;;;;;;;;;;21.82;31.42;103019.28;2092339;28;1072;-59
2022/05/09 02:05:47;;;;;;;;;;;;;;;21.82;31.78;103016.56;2091522;28;819;-59
2022/05/09 02:06:47;;;;;;;;;;;;;;;21.82;31.33;103013.88;2091425;28;977;-59
2022/05/09 02:07:47;;;;;;;;;;;;;;;21.82;31.67;103010.28;2097438;28;893;-59
2022/05/09 02:08:48;;;;;;;;;;;;;;;21.81;31.45;103020.19;2100691;28;1898;-59
2022/05/09 02:09:49;;;;;;;;;;;;;;;21.81;31.76;103014.78;2100678;28;912;-59
2022/05/09 02:10:49;;;;;;;;;;;;;;;21.80;31.30;103010.28;2100876;28;823;-59
2022/05/09 02:11:49;;;;;;;;;;;;;;;21.82;31.58;103016.56;2100697;28;819;-60
2022/05/09 02:12:50;;;;;;;;;;;;;;;21.82;32.04;103018.38;2100735;28;752;-59
2022/05/09 02:13:50;;;;;;;;;;;;;;;21.82;32.38;103012.97;2100733;28;791;-59
2022/05/09 02:14:50;;;;;;;;;;;;;;;21.81;31.54;103013.88;2100721;28;894;-59
2022/05/09 02:15:50;;;;;;;;;;;;;;;21.80;31.64;103015.69;2100747;28;1024;-59
2022/05/09 02:16:50;;;;;;;;;;;;;;;21.81;31.36;103021.97;2100728;28;965;-59
2022/05/09 02:17:50;;;;;;;;;;;;;;;21.81;31.37;103014.78;2100741;28;776;-59
2022/05/09 02:18:50;;;;;;;;;;;;;;;21.80;31.71;103013.00;2100676;28;1237;-59
2022/05/09 02:19:50;;;;;;;;;;;;;;;21.81;31.69;103011.16;2100680;28;1047;-59
2022/05/09 02:20:51;;;;;;;;;;;;;;;21.81;32.01;103011.16;2100666;28;678;-59
2022/05/09 02:21:51;;;;;;;;;;;;;;;21.79;31.54;103016.59;2100642;28;811;-59
2022/05/09 02:22:51;;;;;;;;;;;;;;;21.81;31.47;103011.16;2100660;28;822;-59
2022/05/09 02:23:51;;;;;;;;;;;;;;;21.80;32.26;103017.47;2100585;28;1056;-59
2022/05/09 02:24:52;;;;;;;;;;;;;;;21.80;31.85;103007.59;2100679;28;944;-59
2022/05/09 02:25:53;;;;;;;;;;;;;;;21.81;31.72;103013.88;2099934;28;1381;-59
2022/05/09 02:26:53;;;;;;;;;;;;;;;21.80;32.23;103013.00;2099840;28;1360;-59
2022/05/09 02:27:53;;;;;;;;;;;;;;;21.80;32.49;103026.47;2100769;28;687;-59
2022/05/09 02:28:54;;;;;;;;;;;;;;;21.79;31.71;103015.69;2100558;28;1986;-59
2022/05/09 02:29:54;;;;;;;;;;;;;;;21.80;31.73;103017.47;2100615;28;894;-59
2022/05/09 02:30:54;;;;;;;;;;;;;;;21.79;31.49;103016.59;2100544;28;775;-59
2022/05/09 02:31:55;;;;;;;;;;;;;;;21.79;32.04;103016.59;2100576;28;846;-59
2022/05/09 02:32:55;;;;;;;;;;;;;;;21.80;32.00;103015.69;2100513;28;814;-59
2022/05/09 02:33:56;;;;;;;;;;;;;;;21.80;32.25;103014.78;2100546;28;993;-59
2022/05/09 02:34:56;;;;;;;;;;;;;;;21.79;31.63;103024.69;2100569;28;783;-59
2022/05/09 02:35:56;;;;;;;;;;;;;;;21.79;32.06;103013.88;2100585;28;980;-59
2022/05/09 02:36:56;;;;;;;;;;;;;;;21.77;31.75;103021.09;2100595;28;787;-59
2022/05/09 02:37:56;;;;;;;;;;;;;;;21.78;32.69;103020.19;2100532;28;1306;-59
2022/05/09 02:38:57;;;;;;;;;;;;;;;21.77;32.36;103016.63;2100477;28;993;-59
2022/05/09 02:39:57;;;;;;;;;;;;;;;21.77;31.75;103019.31;2100483;28;897;-59
2022/05/09 02:40:57;;;;;;;;;;;;;;;21.78;32.21;103022.88;2100483;28;1016;-59
2022/05/09 02:41:59;;;;;;;;;;;;;;;21.78;32.12;103012.09;2100512;28;918;-59
2022/05/09 02:43:00;;;;;;;;;;;;;;;21.79;32.46;103012.97;2100332;28;843;-59
2022/05/09 02:44:00;;;;;;;;;;;;;;;21.79;32.48;103015.69;2099905;28;1078;-59
2022/05/09 02:45:01;;;;;;;;;;;;;;;21.81;31.80;103011.16;2100442;28;894;-59
2022/05/09 02:46:03;;;;;;;;;;;;;;;21.79;31.66;103019.28;2100855;28;945;-59
2022/05/09 02:47:03;;;;;;;;;;;;;;;21.81;31.86;103013.88;2099901;28;869;-59
2022/05/09 02:48:04;;;;;;;;;;;;;;;21.80;32.07;103014.78;2100443;28;787;-59
2022/05/09 02:49:04;;;;;;;;;;;;;;;21.80;31.70;103017.47;2100307;28;1889;-59
2022/05/09 02:50:05;;;;;;;;;;;;;;;21.79;31.99;103008.50;2100422;28;1005;-59
2022/05/09 02:51:06;;;;;;;;;;;;;;;21.79;31.88;103012.97;2099723;28;1136;-59
2022/05/09 02:52:06;;;;;;;;;;;;;;;21.80;31.80;103012.06;2099825;28;926;-59
2022/05/09 02:53:08;;;;;;;;;;;;;;;21.80;31.93;103015.69;2100381;28;866;-59
2022/05/09 02:54:09;;;;;;;;;;;;;;;21.79;32.59;103008.50;2100442;28;807;-59
2022/05/09 02:55:10;;;;;;;;;;;;;;;21.80;32.50;103022.88;2100399;28;890;-59
2022/05/09 02:56:10;;;;;;;;;;;;;;;21.79;32.20;103013.88;2100366;28;1052;-59
2022/05/09 02:57:11;;;;;;;;;;;;;;;21.79;32.67;103022.00;2100375;28;989;-60
2022/05/09 02:58:12;;;;;;;;;;;;;;;21.77;32.09;103019.31;2100365;28;850;-59
2022/05/09 02:59:12;;;;;;;;;;;;;;;21.78;32.56;103020.19;2100367;28;1025;-59
2022/05/09 03:00:24;;;;;;;;;;;;;;;21.77;32.20;103022.00;2100525;28;798;-59
2022/05/09 03:01:24;;;;;;;;;;;;;;;21.77;32.39;102964.44;2100414;28;779;-59
2022/05/09 03:02:25;;;;;;;;;;;;;;;21.79;31.91;102969.81;2100385;28;855;-59
2022/05/09 03:04:44;;;;;;;;;;;;;;;21.80;31.84;102969.81;2100476;28;662;-59
2022/05/09 03:05:45;;;;;;;;;;;;;;;21.80;32.20;102966.22;2100338;28;783;-59
2022/05/09 03:06:45;;;;;;;;;;;;;;;21.80;31.87;102964.44;2100306;28;838;-59
2022/05/09 03:07:45;;;;;;;;;;;;;;;21.81;32.35;102986.88;2100267;28;847;-59
2022/05/09 03:08:45;;;;;;;;;;;;;;;21.83;31.89;103052.53;2100291;28;1894;-59
2022/05/09 03:09:48;;;;;;;;;;;;;;;21.82;32.63;103048.03;2100424;28;690;-59
2022/05/09 03:10:48;;;;;;;;;;;;;;;21.80;32.20;103039.97;2100266;28;775;-59
2022/05/09 03:11:48;;;;;;;;;;;;;;;21.80;32.12;103039.97;2100345;28;794;-59
2022/05/09 03:12:49;;;;;;;;;;;;;;;21.79;32.91;103035.47;2100207;28;842;-59
2022/05/09 03:13:49;;;;;;;;;;;;;;;21.79;32.38;103039.97;2099594;28;1184;-59
2022/05/09 03:14:49;;;;;;;;;;;;;;;21.77;32.65;103046.28;2099602;28;759;-60
2022/05/09 03:15:49;;;;;;;;;;;;;;;21.79;32.92;103034.56;2100272;28;1039;-59
2022/05/09 03:16:49;;;;;;;;;;;;;;;21.79;32.16;103040.88;2100233;28;767;-59
2022/05/09 03:17:50;;;;;;;;;;;;;;;21.80;32.07;103041.75;2100192;28;1004;-59
2022/05/09 03:18:51;;;;;;;;;;;;;;;21.79;32.44;103034.56;2100217;28;678;-59
2022/05/09 03:19:52;;;;;;;;;;;;;;;21.79;32.13;103038.16;2100173;28;874;-59
2022/05/09 03:20:53;;;;;;;;;;;;;;;21.77;32.92;103027.41;2100249;28;870;-59
2022/05/09 03:21:53;;;;;;;;;;;;;;;21.77;32.31;103034.59;2100087;28;1030;-59
2022/05/09 03:22:53;;;;;;;;;;;;;;;21.76;32.44;103017.50;2100202;28;788;-59
2022/05/09 03:23:53;;;;;;;;;;;;;;;21.77;32.86;103023.78;2100184;28;937;-59
2022/05/09 03:24:53;;;;;;;;;;;;;;;21.76;32.87;103020.22;2100110;28;988;-59
2022/05/09 03:25:54;;;;;;;;;;;;;;;21.76;31.96;103017.50;2100230;28;1209;-59
2022/05/09 03:26:54;;;;;;;;;;;;;;;21.77;32.41;103011.22;2099955;28;1268;-59
2022/05/09 03:27:55;;;;;;;;;;;;;;;21.79;32.20;103023.78;2100151;28;787;-59
2022/05/09 03:28:55;;;;;;;;;;;;;;;21.78;32.85;103017.50;2100071;28;2020;-59
2022/05/09 03:29:55;;;;;;;;;;;;;;;21.79;32.06;103018.38;2100226;28;795;-59
2022/05/09 03:30:57;;;;;;;;;;;;;;;21.79;32.06;103023.78;2100173;28;854;-59
2022/05/09 03:31:57;;;;;;;;;;;;;;;21.79;32.59;103011.19;2100032;28;783;-59
2022/05/09 03:32:57;;;;;;;;;;;;;;;21.77;32.27;103008.53;2100091;28;984;-59
2022/05/09 03:33:57;;;;;;;;;;;;;;;21.77;32.33;103016.63;2100069;28;857;-59
2022/05/09 03:34:58;;;;;;;;;;;;;;;21.77;32.89;103013.91;2100289;28;796;-59
2022/05/09 03:35:59;;;;;;;;;;;;;;;21.77;32.20;103010.31;2100800;28;894;-59
2022/05/09 03:36:59;;;;;;;;;;;;;;;21.77;32.10;103016.63;2102013;28;894;-59
2022/05/09 03:37:59;;;;;;;;;;;;;;;21.79;32.92;103015.69;2100121;28;834;-59
2022/05/09 03:38:59;;;;;;;;;;;;;;;21.79;32.06;103012.97;2100036;28;1001;-59
2022/05/09 03:40:00;;;;;;;;;;;;;;;21.80;32.26;103020.16;2100004;28;985;-59
2022/05/09 03:41:00;;;;;;;;;;;;;;;21.79;33.00;103018.38;2100015;28;977;-59
2022/05/09 03:42:00;;;;;;;;;;;;;;;21.79;32.95;103010.28;2100003;28;980;-59
2022/05/09 03:43:00;;;;;;;;;;;;;;;21.80;32.93;103017.47;2100019;28;790;-59
2022/05/09 03:44:00;;;;;;;;;;;;;;;21.77;32.76;103008.53;2099313;28;1340;-59
2022/05/09 03:45:01;;;;;;;;;;;;;;;21.77;32.66;103005.81;2099369;28;993;-59
2022/05/09 03:46:01;;;;;;;;;;;;;;;21.77;32.64;103010.31;2099977;28;749;-59
2022/05/09 03:47:01;;;;;;;;;;;;;;;21.76;32.73;103004.03;2100004;28;803;-59
2022/05/09 03:48:03;;;;;;;;;;;;;;;21.77;33.07;103008.53;2099945;28;1040;-59
2022/05/09 03:49:04;;;;;;;;;;;;;;;21.77;32.50;103000.44;2099827;28;1885;-59
2022/05/09 03:50:04;;;;;;;;;;;;;;;21.77;33.20;103005.81;2099946;28;842;-59
2022/05/09 03:51:05;;;;;;;;;;;;;;;21.77;32.59;103008.53;2099195;28;1306;-59
2022/05/09 03:52:05;;;;;;;;;;;;;;;21.78;33.14;103001.31;2099361;28;997;-59
2022/05/09 03:53:05;;;;;;;;;;;;;;;21.79;32.35;103000.41;2099921;28;1001;-59
2022/05/09 03:54:05;;;;;;;;;;;;;;;21.79;32.85;103007.59;2099877;28;877;-59
2022/05/09 03:55:06;;;;;;;;;;;;;;;21.78;33.08;103001.31;2099234;28;1051;-59
2022/05/09 03:56:07;;;;;;;;;;;;;;;21.77;32.52;103013.00;2099648;28;815;-59
2022/05/09 03:57:07;;;;;;;;;;;;;;;21.77;32.67;103002.22;2100000;28;720;-59
2022/05/09 03:58:07;;;;;;;;;;;;;;;21.77;32.56;103000.44;2099911;28;807;-59
2022/05/09 03:59:08;;;;;;;;;;;;;;;21.77;32.38;103000.44;2099829;28;791;-59
2022/05/09 04:00:08;;;;;;;;;;;;;;;21.77;32.67;102984.25;2099822;28;771;-59
2022/05/09 04:01:08;;;;;;;;;;;;;;;22.01;33.05;103000.31;2099857;28;839;-59
2022/05/09 04:02:10;;;;;;;;;;;;;;;22.93;31.06;102990.66;2099809;28;1085;-60
2022/05/09 04:03:11;;;;;;;;;;;;;;;23.58;30.52;102950.28;2099888;28;838;-59
2022/05/09 04:04:11;;;;;;;;;;;;;;;24.00;28.94;102969.59;2099968;28;775;-58
2022/05/09 04:05:15;;;;;;;;;;;;;;;24.29;28.85;102995.31;2099858;28;859;-58
2022/05/09 04:06:16;;;;;;;;;;;;;;;24.57;28.31;102990.34;2099779;28;987;-59
2022/05/09 04:07:19;;;;;;;;;;;;;;;24.87;28.33;102989.88;2099907;28;774;-59
2022/05/09 04:08:20;;;;;;;;;;;;;;;25.06;28.09;102982.28;2099761;28;826;-59
2022/05/09 04:09:20;;;;;;;;;;;;;;;25.25;27.66;102982.84;2099707;28;1951;-58
2022/05/09 04:10:22;;;;;;;;;;;;;;;25.43;27.84;102988.81;2099803;28;1043;-59
2022/05/09 04:11:22;;;;;;;;;;;;;;;25.65;27.33;103001.97;2099742;28;1005;-59
2022/05/09 04:12:22;;;;;;;;;;;;;;;25.79;26.51;102999.84;2099816;28;1032;-58
2022/05/09 04:13:22;;;;;;;;;;;;;;;25.92;27.13;103007.69;2099892;28;818;-59
2022/05/09 04:17:02;;;;;;;;;;;;;;;26.45;26.46;102986.59;2099904;28;594;-59
2022/05/09 04:18:03;;;;;;;;;;;;;;;26.60;25.75;102958.13;2099715;28;952;-59
2022/05/09 04:19:04;;;;;;;;;;;;;;;26.67;25.81;102967.00;2099725;28;767;-59
2022/05/09 04:20:04;;;;;;;;;;;;;;;26.78;25.09;102955.84;2099715;28;838;-59
2022/05/09 04:21:05;;;;;;;;;;;;;;;26.89;25.07;102952.88;2099632;28;981;-59
2022/05/09 04:22:06;;;;;;;;;;;;;;;27.11;24.99;102965.84;2099652;28;1227;-59
2022/05/09 04:23:06;;;;;;;;;;;;;;;27.23;24.41;102955.53;2099698;28;795;-59
2022/05/09 04:24:06;;;;;;;;;;;;;;;27.23;24.97;102966.41;2099648;28;759;-59
2022/05/09 04:25:07;;;;;;;;;;;;;;;27.39;24.56;102960.50;2099725;28;771;-59
2022/05/09 04:26:07;;;;;;;;;;;;;;;27.43;24.45;102961.31;2099693;28;1093;-59
2022/05/09 04:27:07;;;;;;;;;;;;;;;27.42;24.36;102957.69;2099718;28;788;-58
2022/05/09 04:28:08;;;;;;;;;;;;;;;27.56;24.46;102964.59;2099748;28;1029;-59
2022/05/09 04:29:08;;;;;;;;;;;;;;;27.72;24.27;102965.00;2099554;28;1981;-59
2022/05/09 04:30:09;;;;;;;;;;;;;;;27.71;24.57;102952.31;2099806;28;810;-59
2022/05/09 04:31:09;;;;;;;;;;;;;;;27.76;24.14;102966.69;2099761;28;720;-59
2022/05/09 04:32:09;;;;;;;;;;;;;;;27.82;24.13;102961.06;2099650;28;779;-59
2022/05/09 04:33:10;;;;;;;;;;;;;;;27.81;23.93;102964.72;2099610;28;972;-59
2022/05/09 04:34:10;;;;;;;;;;;;;;;27.91;23.78;102965.34;2099618;28;795;-59
2022/05/09 04:35:17;;;;;;;;;;;;;;;28.00;23.25;102967.75;2099615;28;802;-59
2022/05/09 04:36:17;;;;;;;;;;;;;;;28.01;23.66;102966.81;2099618;28;854;-59
2022/05/09 04:37:17;;;;;;;;;;;;;;;28.13;23.44;102960.13;2099523;28;1192;-59
2022/05/09 04:38:22;;;;;;;;;;;;;;;28.18;23.14;102966.31;2099567;28;1056;-59
2022/05/09 04:39:22;;;;;;;;;;;;;;;28.05;23.00;102963.03;2099600;28;862;-59
2022/05/09 04:40:24;;;;;;;;;;;;;;;28.18;23.65;102962.69;2099621;28;695;-59
2022/05/09 04:41:25;;;;;;;;;;;;;;;28.44;22.96;102958.19;2099583;28;847;-59
2022/05/09 04:42:25;;;;;;;;;;;;;;;28.43;22.97;102957.28;2099556;28;811;-59
2022/05/09 04:43:28;;;;;;;;;;;;;;;28.45;22.96;102958.13;2099543;28;821;-59
2022/05/09 04:44:28;;;;;;;;;;;;;;;28.48;23.02;102954.44;2099612;28;827;-59
2022/05/09 04:45:29;;;;;;;;;;;;;;;28.39;22.88;102961.06;2099505;28;862;-60
2022/05/09 04:46:29;;;;;;;;;;;;;;;28.54;22.96;102952.38;2099550;28;993;-59
2022/05/09 04:47:29;;;;;;;;;;;;;;;28.64;22.79;102958.38;2099502;28;906;-59
2022/05/09 04:48:30;;;;;;;;;;;;;;;28.73;22.27;102959.91;2098932;28;1048;-59
2022/05/09 04:49:30;;;;;;;;;;;;;;;28.68;22.34;102954.59;2098843;28;1889;-59
2022/05/09 04:50:32;;;;;;;;;;;;;;;28.64;22.67;102955.66;2099473;28;764;-59
2022/05/09 04:51:32;;;;;;;;;;;;;;;28.64;23.01;102957.50;2099543;28;827;-59
2022/05/09 04:52:32;;;;;;;;;;;;;;;28.74;22.92;102961.69;2099527;28;1177;-59
2022/05/09 04:53:32;;;;;;;;;;;;;;;28.74;22.39;102958.06;2099619;28;843;-59
2022/05/09 04:54:32;;;;;;;;;;;;;;;29.02;22.83;102955.25;2099510;28;787;-59
2022/05/09 04:55:33;;;;;;;;;;;;;;;28.92;22.42;102952.00;2099487;28;950;-59
2022/05/09 04:56:33;;;;;;;;;;;;;;;28.88;22.52;102950.31;2099510;28;973;-59
2022/05/09 04:57:33;;;;;;;;;;;;;;;28.86;22.48;102954.94;2099536;28;678;-59
2022/05/09 04:58:33;;;;;;;;;;;;;;;28.84;22.88;102952.28;2099576;28;728;-59
2022/05/09 04:59:34;;;;;;;;;;;;;;;28.83;22.58;102955.03;2099444;28;763;-59
2022/05/09 05:00:34;;;;;;;;;;;;;;;28.80;23.13;102958.78;2099514;28;779;-59
2022/05/09 05:01:34;;;;;;;;;;;;;;;28.87;23.14;102961.25;2099524;28;858;-59
2022/05/09 05:02:34;;;;;;;;;;;;;;;29.05;22.47;102954.28;2099453;28;763;-59
2022/05/09 05:03:34;;;;;;;;;;;;;;;29.03;22.06;102957.03;2099484;28;822;-59
2022/05/09 05:04:34;;;;;;;;;;;;;;;28.97;22.17;102958.16;2099479;28;913;-59
2022/05/09 05:05:35;;;;;;;;;;;;;;;29.00;22.50;102959.88;2099494;28;771;-59
2022/05/09 05:06:36;;;;;;;;;;;;;;;29.17;22.38;102955.66;2099304;28;772;-59
2022/05/09 05:07:36;;;;;;;;;;;;;;;29.12;22.17;102966.75;2099375;28;779;-59
2022/05/09 05:08:36;;;;;;;;;;;;;;;29.13;22.66;102950.31;2099431;28;1050;-59
2022/05/09 05:09:36;;;;;;;;;;;;;;;29.06;22.56;102958.78;2099385;28;1907;-59
2022/05/09 05:10:37;;;;;;;;;;;;;;;29.03;22.52;102942.53;2099442;28;989;-59
2022/05/09 05:11:40;;;;;;;;;;;;;;;29.08;22.12;102949.56;2099520;28;881;-59
2022/05/09 05:12:40;;;;;;;;;;;;;;;29.40;21.93;102950.25;2099446;28;822;-59
2022/05/09 05:13:41;;;;;;;;;;;;;;;29.16;22.23;102946.56;2099407;28;835;-59
2022/05/09 05:14:41;;;;;;;;;;;;;;;29.08;22.35;102949.56;2099396;28;834;-59
2022/05/09 05:15:41;;;;;;;;;;;;;;;29.09;22.16;102934.13;2099431;28;988;-59
2022/05/09 05:17:00;;;;;;;;;;;;;;;29.07;22.60;102942.34;2099472;28;772;-59
2022/05/09 05:18:00;;;;;;;;;;;;;;;29.24;21.88;102941.69;2100179;28;885;-59
2022/05/09 05:19:00;;;;;;;;;;;;;;;29.16;21.88;102940.22;2099412;28;786;-59
2022/05/09 05:20:00;;;;;;;;;;;;;;;29.22;22.28;102940.00;2099406;28;937;-59
2022/05/09 05:21:08;;;;;;;;;;;;;;;29.30;21.97;102943.31;2099408;28;1013;-59
2022/05/09 05:22:09;;;;;;;;;;;;;;;29.28;22.13;102937.91;2099357;28;826;-59
2022/05/09 05:23:09;;;;;;;;;;;;;;;29.16;22.08;102938.38;2099430;28;779;-59
2022/05/09 05:24:10;;;;;;;;;;;;;;;29.28;22.43;102937.91;2099333;28;933;-59
2022/05/09 05:25:11;;;;;;;;;;;;;;;29.36;22.23;102943.09;2099373;28;989;-59
2022/05/09 05:26:13;;;;;;;;;;;;;;;29.20;22.18;102936.44;2099310;28;1077;-59
2022/05/09 05:27:13;;;;;;;;;;;;;;;29.26;22.21;102938.94;2099432;28;838;-59
2022/05/09 05:28:13;;;;;;;;;;;;;;;29.49;21.89;102943.53;2099408;28;795;-59